createdAt,value
2024-05-09T00:00:18.201Z,833.00
2024-05-09T00:01:13.070Z,833.00
2024-05-09T00:02:12.130Z,833.00
2024-05-09T00:03:12.507Z,832.00
2024-05-09T00:04:12.132Z,826.00
2024-05-09T00:05:12.123Z,829.00
2024-05-09T00:06:12.186Z,829.00
2024-05-09T00:07:12.086Z,821.00
2024-05-09T00:08:12.510Z,821.00
2024-05-09T00:09:12.071Z,823.00
2024-05-09T00:10:22.076Z,819.00
2024-05-09T00:11:13.204Z,819.00
2024-05-09T00:12:12.150Z,820.00
2024-05-09T00:13:12.075Z,823.00
2024-05-09T00:14:12.110Z,820.00
2024-05-09T00:15:12.078Z,818.00
2024-05-09T00:16:12.087Z,825.00
2024-05-09T00:17:12.252Z,810.00
2024-05-09T00:18:12.284Z,824.00
2024-05-09T00:19:12.287Z,827.00
2024-05-09T00:20:17.735Z,815.00
2024-05-09T00:21:13.159Z,815.00
2024-05-09T00:22:12.133Z,815.00
2024-05-09T00:23:13.023Z,816.00
2024-05-09T00:24:12.085Z,821.00
2024-05-09T00:25:12.092Z,818.00
2024-05-09T00:26:12.140Z,819.00
2024-05-09T00:27:13.433Z,817.00
2024-05-09T00:28:12.264Z,824.00
2024-05-09T00:29:12.152Z,820.00
2024-05-09T00:30:17.785Z,822.00
2024-05-09T00:31:13.176Z,821.00
2024-05-09T00:32:12.230Z,823.00
2024-05-09T00:33:12.400Z,821.00
2024-05-09T00:34:12.314Z,824.00
2024-05-09T00:35:12.355Z,814.00
2024-05-09T00:36:12.119Z,820.00
2024-05-09T00:37:12.151Z,823.00
2024-05-09T00:38:12.223Z,814.00
2024-05-09T00:39:12.149Z,814.00
2024-05-09T00:40:18.662Z,815.00
2024-05-09T00:41:14.153Z,815.00
2024-05-09T00:42:12.154Z,817.00
2024-05-09T00:43:13.266Z,817.00
2024-05-09T00:44:12.190Z,815.00
2024-05-09T00:45:12.151Z,817.00
2024-05-09T00:46:12.159Z,819.00
2024-05-09T00:47:12.285Z,820.00
2024-05-09T00:48:14.116Z,823.00
2024-05-09T00:49:12.311Z,815.00
2024-05-09T00:50:18.985Z,817.00
2024-05-09T00:51:13.310Z,815.00
2024-05-09T00:52:12.199Z,816.00
2024-05-09T00:53:12.277Z,819.00
2024-05-09T00:54:12.207Z,820.00
2024-05-09T00:55:12.199Z,818.00
2024-05-09T00:56:12.299Z,817.00
2024-05-09T00:57:15.396Z,825.00
2024-05-09T00:58:12.274Z,822.00
2024-05-09T00:59:12.278Z,824.00
2024-05-09T01:00:22.533Z,818.00
2024-05-09T01:01:13.213Z,818.00
2024-05-09T01:02:12.259Z,820.00
2024-05-09T01:03:13.838Z,819.00
2024-05-09T01:04:12.239Z,825.00
2024-05-09T01:05:12.240Z,824.00
2024-05-09T01:06:12.203Z,821.00
2024-05-09T01:07:12.224Z,816.00
2024-05-09T01:08:12.391Z,827.00
2024-05-09T01:09:12.297Z,810.00
2024-05-09T01:10:17.394Z,807.00
2024-05-09T01:11:13.384Z,807.00
2024-05-09T01:12:12.446Z,809.00
2024-05-09T01:13:12.390Z,810.00
2024-05-09T01:14:12.375Z,812.00
2024-05-09T01:15:12.362Z,815.00
2024-05-09T01:16:13.091Z,816.00
2024-05-09T01:17:12.491Z,806.00
2024-05-09T01:18:13.549Z,807.00
2024-05-09T01:19:12.481Z,803.00
2024-05-09T01:20:19.818Z,809.00
2024-05-09T01:21:13.477Z,808.00
2024-05-09T01:22:12.368Z,811.00
2024-05-09T01:23:13.160Z,811.00
2024-05-09T01:24:12.362Z,813.00
2024-05-09T01:25:12.367Z,812.00
2024-05-09T01:26:12.410Z,807.00
2024-05-09T01:27:12.451Z,802.00
2024-05-09T01:28:12.427Z,811.00
2024-05-09T01:29:12.542Z,807.00
2024-05-09T01:31:12.532Z,802.00
2024-05-09T01:32:12.713Z,810.00
2024-05-09T01:33:13.415Z,809.00
2024-05-09T01:34:12.710Z,801.00
2024-05-09T01:35:12.741Z,799.00
2024-05-09T01:36:12.779Z,797.00
2024-05-09T01:37:12.824Z,807.00
2024-05-09T01:38:13.424Z,803.00
2024-05-09T01:39:12.935Z,806.00
2024-05-09T01:40:18.430Z,811.00
2024-05-09T01:41:13.983Z,805.00
2024-05-09T01:42:12.975Z,806.00
2024-05-09T01:43:12.964Z,803.00
2024-05-09T01:44:13.002Z,801.00
2024-05-09T01:45:12.975Z,794.00
2024-05-09T01:46:12.982Z,798.00
2024-05-09T01:47:13.059Z,802.00
2024-05-09T01:48:13.189Z,802.00
2024-05-09T01:49:13.175Z,809.00
2024-05-09T01:50:16.379Z,794.00
2024-05-09T01:51:13.151Z,809.00
2024-05-09T01:52:13.030Z,805.00
2024-05-09T01:53:13.724Z,795.00
2024-05-09T01:54:13.031Z,801.00
2024-05-09T01:55:13.009Z,804.00
2024-05-09T01:56:13.055Z,796.00
2024-05-09T01:57:13.116Z,802.00
2024-05-09T01:58:13.132Z,798.00
2024-05-09T01:59:13.057Z,798.00
2024-05-09T02:00:15.768Z,801.00
2024-05-09T02:01:14.069Z,802.00
2024-05-09T02:02:13.232Z,802.00
2024-05-09T02:03:15.687Z,805.00
2024-05-09T02:04:13.323Z,802.00
2024-05-09T02:05:13.221Z,801.00
2024-05-09T02:06:13.076Z,802.00
2024-05-09T02:07:13.027Z,806.00
2024-05-09T02:08:13.077Z,809.00
2024-05-09T02:09:13.027Z,803.00
2024-05-09T02:10:20.178Z,792.00
2024-05-09T02:11:14.150Z,793.00
2024-05-09T02:12:13.157Z,795.00
2024-05-09T02:13:13.074Z,799.00
2024-05-09T02:14:13.060Z,797.00
2024-05-09T02:15:13.038Z,805.00
2024-05-09T02:16:13.032Z,800.00
2024-05-09T02:17:13.133Z,798.00
2024-05-09T02:18:13.644Z,799.00
2024-05-09T02:19:13.226Z,800.00
2024-05-09T02:20:18.960Z,796.00
2024-05-09T02:21:14.215Z,796.00
2024-05-09T02:22:13.054Z,797.00
2024-05-09T02:23:13.233Z,797.00
2024-05-09T02:24:13.064Z,799.00
2024-05-09T02:25:13.073Z,804.00
2024-05-09T02:26:13.073Z,801.00
2024-05-09T02:27:13.135Z,803.00
2024-05-09T02:28:13.062Z,798.00
2024-05-09T02:29:13.118Z,796.00
2024-05-09T02:30:19.075Z,803.00
2024-05-09T02:31:14.138Z,803.00
2024-05-09T02:32:13.138Z,790.00
2024-05-09T02:33:14.396Z,795.00
2024-05-09T02:34:13.178Z,793.00
2024-05-09T02:35:13.138Z,793.00
2024-05-09T02:36:13.083Z,802.00
2024-05-09T02:37:13.139Z,793.00
2024-05-09T02:38:13.619Z,799.00
2024-05-09T02:39:13.127Z,789.00
2024-05-09T02:40:14.928Z,794.00
2024-05-09T02:41:14.130Z,794.00
2024-05-09T02:42:13.089Z,794.00
2024-05-09T02:43:13.358Z,793.00
2024-05-09T02:44:13.174Z,800.00
2024-05-09T02:45:13.087Z,794.00
2024-05-09T02:46:13.118Z,785.00
2024-05-09T02:47:14.402Z,789.00
2024-05-09T02:48:14.029Z,797.00
2024-05-09T02:49:13.241Z,795.00
2024-05-09T02:51:13.155Z,786.00
2024-05-09T02:52:13.219Z,785.00
2024-05-09T02:53:13.782Z,778.00
2024-05-09T02:54:13.323Z,786.00
2024-05-09T02:55:13.374Z,780.00
2024-05-09T02:56:13.394Z,790.00
2024-05-09T02:57:13.425Z,778.00
2024-05-09T02:58:13.470Z,789.00
2024-05-09T02:59:13.598Z,785.00
2024-05-09T03:00:19.043Z,784.00
2024-05-09T03:01:14.663Z,784.00
2024-05-09T03:02:13.705Z,782.00
2024-05-09T03:03:15.405Z,786.00
2024-05-09T03:04:13.656Z,786.00
2024-05-09T03:05:13.656Z,785.00
2024-05-09T03:06:13.611Z,790.00
2024-05-09T03:07:13.614Z,782.00
2024-05-09T03:08:13.890Z,780.00
2024-05-09T03:09:13.740Z,779.00
2024-05-09T03:10:18.513Z,780.00
2024-05-09T03:11:14.883Z,781.00
2024-05-09T03:12:13.919Z,782.00
2024-05-09T03:13:15.162Z,781.00
2024-05-09T03:14:13.955Z,780.00
2024-05-09T03:15:13.802Z,784.00
2024-05-09T03:16:13.805Z,788.00
2024-05-09T03:17:17.380Z,787.00
2024-05-09T03:18:14.159Z,789.00
2024-05-09T03:19:13.971Z,787.00
2024-05-09T03:20:20.415Z,786.00
2024-05-09T03:21:19.457Z,786.00
2024-05-09T03:22:14.048Z,787.00
2024-05-09T03:23:14.209Z,788.00
2024-05-09T03:24:14.133Z,790.00
2024-05-09T03:25:14.266Z,789.00
2024-05-09T03:26:14.318Z,801.00
2024-05-09T03:27:14.288Z,787.00
2024-05-09T03:28:14.345Z,790.00
2024-05-09T03:29:14.488Z,781.00
2024-05-09T03:31:14.625Z,786.00
2024-05-09T03:32:14.789Z,782.00
2024-05-09T03:33:15.688Z,776.00
2024-05-09T03:34:14.840Z,782.00
2024-05-09T03:35:15.097Z,779.00
2024-05-09T03:36:15.053Z,778.00
2024-05-09T03:37:15.180Z,773.00
2024-05-09T03:38:15.492Z,774.00
2024-05-09T03:39:15.393Z,771.00
2024-05-09T03:40:20.883Z,780.00
2024-05-09T03:41:16.581Z,780.00
2024-05-09T03:42:15.580Z,780.00
2024-05-09T03:43:15.598Z,781.00
2024-05-09T03:44:15.771Z,780.00
2024-05-09T03:45:15.547Z,778.00
2024-05-09T03:46:15.547Z,773.00
2024-05-09T03:47:15.618Z,771.00
2024-05-09T03:48:15.948Z,770.00
2024-05-09T03:49:15.703Z,771.00
2024-05-09T03:50:22.583Z,777.00
2024-05-09T03:51:16.542Z,777.00
2024-05-09T03:52:15.545Z,776.00
2024-05-09T03:53:15.624Z,769.00
2024-05-09T03:54:15.558Z,769.00
2024-05-09T03:55:15.574Z,780.00
2024-05-09T03:56:15.655Z,767.00
2024-05-09T03:57:15.604Z,770.00
2024-05-09T03:58:15.555Z,778.00
2024-05-09T03:59:15.642Z,773.00
2024-05-09T04:00:22.108Z,770.00
2024-05-09T04:01:16.766Z,771.00
2024-05-09T04:02:15.793Z,772.00
2024-05-09T04:03:16.182Z,774.00
2024-05-09T04:04:15.766Z,778.00
2024-05-09T04:05:15.789Z,762.00
2024-05-09T04:06:15.777Z,764.00
2024-05-09T04:07:15.775Z,766.00
2024-05-09T04:08:16.088Z,779.00
2024-05-09T04:09:15.780Z,768.00
2024-05-09T04:10:24.022Z,771.00
2024-05-09T04:11:16.852Z,772.00
2024-05-09T04:12:15.865Z,773.00
2024-05-09T04:13:15.763Z,773.00
2024-05-09T04:14:15.844Z,776.00
2024-05-09T04:15:15.779Z,759.00
2024-05-09T04:16:15.809Z,767.00
2024-05-09T04:17:16.450Z,769.00
2024-05-09T04:18:15.857Z,771.00
2024-05-09T04:19:15.997Z,760.00
2024-05-09T04:20:28.250Z,757.00
2024-05-09T04:21:16.873Z,758.00
2024-05-09T04:22:15.789Z,759.00
2024-05-09T04:23:15.833Z,758.00
2024-05-09T04:24:15.785Z,767.00
2024-05-09T04:25:15.821Z,761.00
2024-05-09T04:26:15.827Z,765.00
2024-05-09T04:27:15.793Z,778.00
2024-05-09T04:28:15.784Z,772.00
2024-05-09T04:29:15.861Z,759.00
2024-05-09T04:30:25.354Z,769.00
2024-05-09T04:31:16.908Z,769.00
2024-05-09T04:32:16.000Z,770.00
2024-05-09T04:33:16.077Z,766.00
2024-05-09T04:34:16.249Z,766.00
2024-05-09T04:35:23.678Z,600.00
2024-05-09T04:36:23.524Z,600.00
2024-05-09T04:37:23.545Z,600.00
2024-05-09T04:38:23.646Z,600.00
2024-05-09T04:39:23.540Z,600.00
2024-05-09T04:40:30.817Z,600.00
2024-05-09T04:41:24.632Z,600.00
2024-05-09T04:42:23.559Z,597.00
2024-05-09T04:43:23.556Z,600.00
2024-05-09T04:44:23.558Z,597.00
2024-05-09T04:45:23.548Z,592.00
2024-05-09T04:46:23.554Z,600.00
2024-05-09T04:47:23.811Z,601.00
2024-05-09T04:48:23.646Z,607.00
2024-05-09T04:49:23.767Z,606.00
2024-05-09T04:51:23.561Z,606.00
2024-05-09T04:52:23.560Z,606.00
2024-05-09T04:53:23.600Z,605.00
2024-05-09T04:54:33.641Z,602.00
2024-05-09T04:55:24.614Z,602.00
2024-05-09T04:56:23.640Z,603.00
2024-05-09T04:57:23.597Z,605.00
2024-05-09T04:58:23.602Z,605.00
2024-05-09T04:59:23.625Z,602.00
2024-05-09T05:00:31.992Z,600.00
2024-05-09T05:01:24.669Z,600.00
2024-05-09T05:02:23.692Z,601.00
2024-05-09T05:03:23.766Z,602.00
2024-05-09T05:04:23.619Z,602.00
2024-05-09T05:05:23.656Z,602.00
2024-05-09T05:06:23.609Z,601.00
2024-05-09T05:07:23.616Z,605.00
2024-05-09T05:08:23.660Z,604.00
2024-05-09T05:09:23.670Z,603.00
2024-05-09T05:10:32.937Z,601.00
2024-05-09T05:11:24.774Z,601.00
2024-05-09T05:12:23.826Z,601.00
2024-05-09T05:13:24.510Z,602.00
2024-05-09T05:14:23.806Z,600.00
2024-05-09T05:15:23.635Z,603.00
2024-05-09T05:16:23.647Z,601.00
2024-05-09T05:17:23.777Z,601.00
2024-05-09T05:18:23.841Z,606.00
2024-05-09T05:19:23.733Z,602.00
2024-05-09T05:20:30.956Z,603.00
2024-05-09T05:21:24.863Z,603.00
2024-05-09T05:22:27.780Z,603.00
2024-05-09T05:23:23.948Z,602.00
2024-05-09T05:24:23.740Z,604.00
2024-05-09T05:25:23.742Z,604.00
2024-05-09T05:26:23.771Z,608.00
2024-05-09T05:27:23.844Z,607.00
2024-05-09T05:28:23.941Z,602.00
2024-05-09T05:29:23.810Z,605.00
2024-05-09T05:30:29.051Z,605.00
2024-05-09T05:31:24.783Z,605.00
2024-05-09T05:32:23.916Z,605.00
2024-05-09T05:33:23.907Z,605.00
2024-05-09T05:34:23.773Z,603.00
2024-05-09T05:35:23.881Z,606.00
2024-05-09T05:36:23.748Z,603.00
2024-05-09T05:37:23.790Z,604.00
2024-05-09T05:38:27.383Z,601.00
2024-05-09T05:39:23.766Z,601.00
2024-05-09T05:40:32.367Z,601.00
2024-05-09T05:41:24.845Z,601.00
2024-05-09T05:42:25.989Z,602.00
2024-05-09T05:43:23.760Z,604.00
2024-05-09T05:44:23.898Z,605.00
2024-05-09T05:45:23.764Z,603.00
2024-05-09T05:46:23.770Z,605.00
2024-05-09T05:47:23.877Z,604.00
2024-05-09T05:48:24.071Z,607.00
2024-05-09T05:49:24.089Z,603.00
2024-05-09T05:50:31.902Z,603.00
2024-05-09T05:51:25.032Z,603.00
2024-05-09T05:52:24.089Z,603.00
2024-05-09T05:53:24.118Z,604.00
2024-05-09T05:54:24.149Z,602.00
2024-05-09T05:55:23.983Z,604.00
2024-05-09T05:56:24.067Z,602.00
2024-05-09T05:57:29.039Z,606.00
2024-05-09T05:58:24.026Z,603.00
2024-05-09T05:59:24.104Z,603.00
2024-05-09T06:01:24.092Z,608.00
2024-05-09T06:02:24.098Z,598.00
2024-05-09T06:03:24.067Z,603.00
2024-05-09T06:04:24.123Z,602.00
2024-05-09T06:05:26.010Z,605.00
2024-05-09T06:06:24.055Z,605.00
2024-05-09T06:07:24.046Z,606.00
2024-05-09T06:08:26.182Z,606.00
2024-05-09T06:09:24.044Z,605.00
2024-05-09T06:10:26.478Z,606.00
2024-05-09T06:11:25.187Z,605.00
2024-05-09T06:12:24.180Z,606.00
2024-05-09T06:13:24.074Z,607.00
2024-05-09T06:14:24.231Z,605.00
2024-05-09T06:15:24.052Z,605.00
2024-05-09T06:16:24.090Z,605.00
2024-05-09T06:17:24.203Z,605.00
2024-05-09T06:18:24.569Z,603.00
2024-05-09T06:19:24.512Z,606.00
2024-05-09T06:20:33.592Z,604.00
2024-05-09T06:21:25.120Z,604.00
2024-05-09T06:22:24.048Z,605.00
2024-05-09T06:23:24.131Z,606.00
2024-05-09T06:24:24.064Z,605.00
2024-05-09T06:25:24.121Z,602.00
2024-05-09T06:26:24.108Z,603.00
2024-05-09T06:27:24.067Z,606.00
2024-05-09T06:28:24.074Z,603.00
2024-05-09T06:29:24.197Z,603.00
2024-05-09T06:30:30.787Z,605.00
2024-05-09T06:31:25.173Z,605.00
2024-05-09T06:32:24.420Z,606.00
2024-05-09T06:33:24.605Z,606.00
2024-05-09T06:34:24.347Z,608.00
2024-05-09T06:35:24.272Z,608.00
2024-05-09T06:36:24.196Z,605.00
2024-05-09T06:37:24.188Z,606.00
2024-05-09T06:38:24.339Z,604.00
2024-05-09T06:39:24.164Z,603.00
2024-05-09T06:40:29.295Z,603.00
2024-05-09T06:41:25.292Z,603.00
2024-05-09T06:42:24.252Z,603.00
2024-05-09T06:43:24.214Z,604.00
2024-05-09T06:44:24.339Z,601.00
2024-05-09T06:45:24.253Z,601.00
2024-05-09T06:46:24.274Z,606.00
2024-05-09T06:47:24.535Z,604.00
2024-05-09T06:48:24.427Z,606.00
2024-05-09T06:49:24.492Z,602.00
2024-05-09T06:50:28.131Z,605.00
2024-05-09T06:51:25.320Z,605.00
2024-05-09T06:52:24.277Z,602.00
2024-05-09T06:53:24.385Z,604.00
2024-05-09T06:54:24.258Z,606.00
2024-05-09T06:55:24.296Z,604.00
2024-05-09T06:56:24.404Z,607.00
2024-05-09T06:57:24.355Z,603.00
2024-05-09T06:58:24.309Z,603.00
2024-05-09T06:59:24.315Z,603.00
2024-05-09T07:00:30.864Z,603.00
2024-05-09T07:01:25.355Z,603.00
2024-05-09T07:02:24.475Z,604.00
2024-05-09T07:03:24.481Z,603.00
2024-05-09T07:04:24.425Z,601.00
2024-05-09T07:05:24.486Z,601.00
2024-05-09T07:06:25.243Z,600.00
2024-05-09T07:07:24.340Z,603.00
2024-05-09T07:08:24.365Z,600.00
2024-05-09T07:09:24.284Z,603.00
2024-05-09T07:10:29.163Z,605.00
2024-05-09T07:11:25.403Z,605.00
2024-05-09T07:12:24.578Z,605.00
2024-05-09T07:13:24.322Z,605.00
2024-05-09T07:14:24.350Z,605.00
2024-05-09T07:15:24.310Z,607.00
2024-05-09T07:16:24.479Z,603.00
2024-05-09T07:17:24.435Z,606.00
2024-05-09T07:18:24.456Z,604.00
2024-05-09T07:19:24.404Z,606.00
2024-05-09T07:20:32.341Z,604.00
2024-05-09T07:21:25.369Z,605.00
2024-05-09T07:22:24.315Z,605.00
2024-05-09T07:23:24.397Z,605.00
2024-05-09T07:24:24.323Z,605.00
2024-05-09T07:25:24.368Z,603.00
2024-05-09T07:26:24.439Z,605.00
2024-05-09T07:27:24.354Z,603.00
2024-05-09T07:28:24.373Z,606.00
2024-05-09T07:29:24.438Z,605.00
2024-05-09T07:30:32.494Z,603.00
2024-05-09T07:31:25.353Z,603.00
2024-05-09T07:32:24.596Z,603.00
2024-05-09T07:33:24.874Z,604.00
2024-05-09T07:34:24.437Z,604.00
2024-05-09T07:35:24.395Z,603.00
2024-05-09T07:36:24.381Z,603.00
2024-05-09T07:37:24.376Z,606.00
2024-05-09T07:38:24.463Z,602.00
2024-05-09T07:39:24.389Z,604.00
2024-05-09T07:40:32.451Z,605.00
2024-05-09T07:41:25.433Z,605.00
2024-05-09T07:42:24.387Z,605.00
2024-05-09T07:43:24.440Z,606.00
2024-05-09T07:44:24.415Z,601.00
2024-05-09T07:45:43.007Z,603.00
2024-05-09T07:47:20.360Z,605.00
2024-05-09T07:48:56.914Z,605.00
2024-05-09T07:50:00.504Z,605.00
2024-05-09T07:54:24.780Z,606.00
2024-05-09T07:55:24.651Z,607.00
2024-05-09T07:56:25.668Z,609.00
2024-05-09T07:57:24.478Z,609.00
2024-05-09T07:58:24.485Z,607.00
2024-05-09T07:59:24.433Z,610.00
2024-05-09T08:01:24.593Z,608.00
2024-05-09T08:02:24.693Z,604.00
2024-05-09T08:03:24.557Z,605.00
2024-05-09T08:04:26.551Z,605.00
2024-05-09T08:05:24.511Z,606.00
2024-05-09T08:06:24.494Z,602.00
2024-05-09T08:07:24.565Z,601.00
2024-05-09T08:08:24.588Z,602.00
2024-05-09T08:09:24.677Z,603.00
2024-05-09T08:10:28.743Z,603.00
2024-05-09T08:11:24.869Z,603.00
2024-05-09T08:12:24.756Z,603.00
2024-05-09T08:13:24.778Z,601.00
2024-05-09T08:14:24.788Z,603.00
2024-05-09T08:15:24.769Z,604.00
2024-05-09T08:16:25.030Z,603.00
2024-05-09T08:17:24.941Z,603.00
2024-05-09T08:18:24.941Z,603.00
2024-05-09T08:19:24.816Z,604.00
2024-05-09T08:20:31.033Z,603.00
2024-05-09T08:21:25.786Z,603.00
2024-05-09T08:22:24.753Z,604.00
2024-05-09T08:23:24.812Z,603.00
2024-05-09T08:24:24.763Z,605.00
2024-05-09T08:25:24.846Z,604.00
2024-05-09T08:26:24.796Z,605.00
2024-05-09T08:27:24.788Z,604.00
2024-05-09T08:28:24.875Z,604.00
2024-05-09T08:29:24.791Z,603.00
2024-05-09T08:30:32.552Z,603.00
2024-05-09T08:31:25.922Z,603.00
2024-05-09T08:32:24.815Z,604.00
2024-05-09T08:33:24.887Z,604.00
2024-05-09T08:34:24.870Z,606.00
2024-05-09T08:35:24.791Z,603.00
2024-05-09T08:36:24.787Z,605.00
2024-05-09T08:37:29.376Z,603.00
2024-05-09T08:38:25.806Z,603.00
2024-05-09T08:39:24.794Z,604.00
2024-05-09T08:40:31.083Z,604.00
2024-05-09T08:41:25.822Z,603.00
2024-05-09T08:42:24.800Z,604.00
2024-05-09T08:43:24.861Z,604.00
2024-05-09T08:44:24.813Z,603.00
2024-05-09T08:45:24.830Z,602.00
2024-05-09T08:46:24.884Z,604.00
2024-05-09T08:47:24.970Z,602.00
2024-05-09T08:48:25.055Z,604.00
2024-05-09T08:49:24.875Z,604.00
2024-05-09T08:50:32.297Z,604.00
2024-05-09T08:51:25.847Z,604.00
2024-05-09T08:52:24.839Z,604.00
2024-05-09T08:53:24.869Z,605.00
2024-05-09T08:54:24.844Z,604.00
2024-05-09T08:55:24.955Z,602.00
2024-05-09T08:56:24.841Z,603.00
2024-05-09T08:57:24.964Z,604.00
2024-05-09T08:58:24.884Z,604.00
2024-05-09T08:59:24.874Z,603.00
2024-05-09T09:00:33.837Z,601.00
2024-05-09T09:01:25.981Z,601.00
2024-05-09T09:02:25.043Z,601.00
2024-05-09T09:03:25.075Z,601.00
2024-05-09T09:04:25.043Z,603.00
2024-05-09T09:05:25.119Z,601.00
2024-05-09T09:06:24.907Z,605.00
2024-05-09T09:07:24.976Z,603.00
2024-05-09T09:08:24.890Z,603.00
2024-05-09T09:09:24.883Z,601.00
2024-05-09T09:10:31.202Z,605.00
2024-05-09T09:11:25.932Z,605.00
2024-05-09T09:12:24.910Z,605.00
2024-05-09T09:13:24.920Z,605.00
2024-05-09T09:14:24.892Z,606.00
2024-05-09T09:15:24.896Z,606.00
2024-05-09T09:16:24.926Z,607.00
2024-05-09T09:17:24.966Z,602.00
2024-05-09T09:18:25.027Z,604.00
2024-05-09T09:19:25.081Z,606.00
2024-05-09T09:20:29.722Z,601.00
2024-05-09T09:21:25.932Z,601.00
2024-05-09T09:22:24.944Z,602.00
2024-05-09T09:23:24.947Z,602.00
2024-05-09T09:24:24.956Z,602.00
2024-05-09T09:25:24.935Z,606.00
2024-05-09T09:26:24.950Z,605.00
2024-05-09T09:27:24.950Z,601.00
2024-05-09T09:28:24.942Z,601.00
2024-05-09T09:29:24.953Z,602.00
2024-05-09T09:30:34.669Z,604.00
2024-05-09T09:31:26.075Z,605.00
2024-05-09T09:32:25.037Z,605.00
2024-05-09T09:33:25.094Z,605.00
2024-05-09T09:34:25.056Z,608.00
2024-05-09T09:35:24.948Z,603.00
2024-05-09T09:36:24.990Z,605.00
2024-05-09T09:37:24.972Z,603.00
2024-05-09T09:38:24.975Z,604.00
2024-05-09T09:39:24.955Z,606.00
2024-05-09T09:40:31.334Z,603.00
2024-05-09T09:41:25.983Z,603.00
2024-05-09T09:42:24.999Z,602.00
2024-05-09T09:43:25.051Z,604.00
2024-05-09T09:44:24.982Z,603.00
2024-05-09T09:45:24.993Z,604.00
2024-05-09T09:46:25.165Z,604.00
2024-05-09T09:47:25.050Z,603.00
2024-05-09T09:48:25.084Z,603.00
2024-05-09T09:49:25.042Z,600.00
2024-05-09T09:50:31.851Z,604.00
2024-05-09T09:51:25.994Z,604.00
2024-05-09T09:52:25.063Z,604.00
2024-05-09T09:53:25.011Z,604.00
2024-05-09T09:54:24.989Z,606.00
2024-05-09T09:55:25.149Z,601.00
2024-05-09T09:56:25.004Z,601.00
2024-05-09T09:57:24.998Z,606.00
2024-05-09T09:58:25.157Z,608.00
2024-05-09T09:59:25.005Z,607.00
2024-05-09T10:00:30.573Z,603.00
2024-05-09T10:01:26.062Z,603.00
2024-05-09T10:02:25.194Z,604.00
2024-05-09T10:03:25.118Z,606.00
2024-05-09T10:04:25.140Z,605.00
2024-05-09T10:05:25.298Z,607.00
2024-05-09T10:06:25.028Z,606.00
2024-05-09T10:07:25.044Z,609.00
2024-05-09T10:08:25.027Z,610.00
2024-05-09T10:09:25.050Z,603.00
2024-05-09T10:10:31.487Z,605.00
2024-05-09T10:11:26.056Z,605.00
2024-05-09T10:12:25.074Z,606.00
2024-05-09T10:13:25.092Z,606.00
2024-05-09T10:14:25.078Z,606.00
2024-05-09T10:15:25.026Z,607.00
2024-05-09T10:16:25.120Z,609.00
2024-05-09T10:17:25.214Z,609.00
2024-05-09T10:18:28.474Z,607.00
2024-05-09T10:19:26.098Z,607.00
2024-05-09T10:20:28.251Z,608.00
2024-05-09T10:21:26.049Z,608.00
2024-05-09T10:22:25.121Z,608.00
2024-05-09T10:23:25.048Z,609.00
2024-05-09T10:24:25.126Z,611.00
2024-05-09T10:25:25.143Z,613.00
2024-05-09T10:26:25.059Z,611.00
2024-05-09T10:27:25.066Z,610.00
2024-05-09T10:28:25.157Z,611.00
2024-05-09T10:29:25.057Z,612.00
2024-05-09T10:30:33.390Z,608.00
2024-05-09T10:31:26.091Z,608.00
2024-05-09T10:32:25.150Z,609.00
2024-05-09T10:33:25.144Z,609.00
2024-05-09T10:34:25.396Z,611.00
2024-05-09T10:35:25.094Z,613.00
2024-05-09T10:36:25.167Z,614.00
2024-05-09T10:37:25.142Z,612.00
2024-05-09T10:38:25.071Z,615.00
2024-05-09T10:39:25.094Z,613.00
2024-05-09T10:40:31.002Z,613.00
2024-05-09T10:41:26.083Z,613.00
2024-05-09T10:42:25.096Z,612.00
2024-05-09T10:43:25.123Z,613.00
2024-05-09T10:44:25.100Z,612.00
2024-05-09T10:45:25.076Z,610.00
2024-05-09T10:46:25.108Z,610.00
2024-05-09T10:47:25.234Z,615.00
2024-05-09T10:48:25.200Z,611.00
2024-05-09T10:49:25.161Z,613.00
2024-05-09T10:50:28.775Z,615.00
2024-05-09T10:51:26.098Z,614.00
2024-05-09T10:52:25.143Z,614.00
2024-05-09T10:53:25.105Z,616.00
2024-05-09T10:54:25.100Z,615.00
2024-05-09T10:55:25.140Z,615.00
2024-05-09T10:56:25.117Z,614.00
2024-05-09T10:57:25.124Z,615.00
2024-05-09T10:58:46.135Z,610.00
2024-05-09T10:59:25.117Z,611.00
2024-05-09T11:00:33.067Z,613.00
2024-05-09T11:01:26.260Z,611.00
2024-05-09T11:02:25.408Z,613.00
2024-05-09T11:03:25.167Z,617.00
2024-05-09T11:04:25.223Z,622.00
2024-05-09T11:05:25.174Z,628.00
2024-05-09T11:06:25.139Z,622.00
2024-05-09T11:07:25.241Z,624.00
2024-05-09T11:08:25.128Z,624.00
2024-05-09T11:09:25.131Z,625.00
2024-05-09T11:10:31.829Z,623.00
2024-05-09T11:11:26.177Z,623.00
2024-05-09T11:12:25.151Z,619.00
2024-05-09T11:13:25.136Z,623.00
2024-05-09T11:14:25.139Z,623.00
2024-05-09T11:15:25.167Z,620.00
2024-05-09T11:16:25.453Z,619.00
2024-05-09T11:17:25.303Z,617.00
2024-05-09T11:18:26.617Z,618.00
2024-05-09T11:19:25.364Z,620.00
2024-05-09T11:20:29.689Z,618.00
2024-05-09T11:21:26.166Z,618.00
2024-05-09T11:22:25.277Z,619.00
2024-05-09T11:23:25.195Z,619.00
2024-05-09T11:24:25.173Z,622.00
2024-05-09T11:25:25.232Z,622.00
2024-05-09T11:26:25.267Z,622.00
2024-05-09T11:27:25.185Z,618.00
2024-05-09T11:28:25.261Z,619.00
2024-05-09T11:29:25.190Z,619.00
2024-05-09T11:30:30.162Z,614.00
2024-05-09T11:31:26.256Z,614.00
2024-05-09T11:32:25.419Z,615.00
2024-05-09T11:33:25.234Z,616.00
2024-05-09T11:34:25.243Z,618.00
2024-05-09T11:35:25.201Z,618.00
2024-05-09T11:36:25.210Z,619.00
2024-05-09T11:37:25.301Z,618.00
2024-05-09T11:38:25.203Z,622.00
2024-05-09T11:39:25.270Z,618.00
2024-05-09T11:40:31.978Z,618.00
2024-05-09T11:41:26.221Z,618.00
2024-05-09T11:42:25.216Z,618.00
2024-05-09T11:43:25.367Z,620.00
2024-05-09T11:44:25.248Z,619.00
2024-05-09T11:45:25.233Z,619.00
2024-05-09T11:46:25.243Z,620.00
2024-05-09T11:47:25.384Z,616.00
2024-05-09T11:48:25.801Z,618.00
2024-05-09T11:49:27.033Z,618.00
2024-05-09T11:50:30.035Z,619.00
2024-05-09T11:51:26.264Z,619.00
2024-05-09T11:52:25.292Z,620.00
2024-05-09T11:53:25.308Z,620.00
2024-05-09T11:54:25.256Z,619.00
2024-05-09T11:55:28.010Z,615.00
2024-05-09T11:56:25.267Z,622.00
2024-05-09T11:57:25.251Z,617.00
2024-05-09T11:58:25.360Z,620.00
2024-05-09T11:59:25.309Z,622.00
2024-05-09T12:00:33.782Z,621.00
2024-05-09T12:01:27.939Z,621.00
2024-05-09T12:02:25.408Z,621.00
2024-05-09T12:03:25.355Z,622.00
2024-05-09T12:04:25.401Z,623.00
2024-05-09T12:05:25.426Z,622.00
2024-05-09T12:06:25.304Z,622.00
2024-05-09T12:07:25.335Z,623.00
2024-05-09T12:08:25.327Z,621.00
2024-05-09T12:09:25.293Z,623.00
2024-05-09T12:10:32.301Z,620.00
2024-05-09T12:11:26.365Z,620.00
2024-05-09T12:12:25.315Z,621.00
2024-05-09T12:13:25.422Z,621.00
2024-05-09T12:14:25.318Z,619.00
2024-05-09T12:15:25.296Z,622.00
2024-05-09T12:16:25.489Z,627.00
2024-05-09T12:17:25.447Z,625.00
2024-05-09T12:18:25.369Z,622.00
2024-05-09T12:19:25.452Z,623.00
2024-05-09T12:20:33.073Z,623.00
2024-05-09T12:21:26.387Z,623.00
2024-05-09T12:22:25.427Z,624.00
2024-05-09T12:23:25.426Z,623.00
2024-05-09T12:24:25.383Z,624.00
2024-05-09T12:25:25.410Z,625.00
2024-05-09T12:26:25.413Z,624.00
2024-05-09T12:27:25.399Z,624.00
2024-05-09T12:28:25.444Z,623.00
2024-05-09T12:29:25.454Z,624.00
2024-05-09T12:30:35.047Z,622.00
2024-05-09T12:31:26.652Z,622.00
2024-05-09T12:32:25.680Z,622.00
2024-05-09T12:33:25.657Z,622.00
2024-05-09T12:34:25.620Z,624.00
2024-05-09T12:35:25.529Z,626.00
2024-05-09T12:36:25.531Z,623.00
2024-05-09T12:37:25.674Z,628.00
2024-05-09T12:38:25.544Z,620.00
2024-05-09T12:39:25.579Z,621.00